Time;durP1;ratioP1;P1;durP2;ratioP2;P2;SDS_P1;SDS_P2;PMS_P1;PMS_P2;Temp;Humidity;BMP_temperature;BMP_pressure;BME280_temperature;BME280_humidity;BME280_pressure;Samples;Min_cycle;Max_cycle;Signal;HPM_P1;HPM_P2
2022/09/12 00:00:09;;;;;;;21.88;13.88;;;16.70;99.90;;;;;;4975133;28;20089;-70
2022/09/12 00:02:34;;;;;;;23.50;13.05;;;16.60;99.90;;;;;;4987620;28;20080;-68
2022/09/12 00:05:00;;;;;;;22.85;13.95;;;16.60;99.90;;;;;;4992172;28;20101;-69
2022/09/12 00:07:26;;;;;;;22.50;14.07;;;16.60;99.90;;;;;;4993458;28;20489;-68
2022/09/12 00:09:51;;;;;;;25.00;15.30;;;16.60;99.90;;;;;;4980277;28;20482;-68
2022/09/12 00:12:18;;;;;;;24.65;16.58;;;16.60;99.90;;;;;;4982816;28;20018;-67
2022/09/12 00:14:44;;;;;;;26.17;17.40;;;16.60;99.90;;;;;;4984545;28;20053;-68
2022/09/12 00:17:09;;;;;;;27.15;16.27;;;16.60;99.90;;;;;;4973983;28;20365;-68
2022/09/12 00:19:35;;;;;;;27.10;16.98;;;16.60;99.90;;;;;;4975778;28;20373;-67
2022/09/12 00:22:01;;;;;;;29.42;17.48;;;16.50;99.90;;;;;;4975899;28;20039;-71
2022/09/12 00:24:26;;;;;;;31.08;17.67;;;16.50;99.90;;;;;;4991925;28;20420;-69
2022/09/12 00:26:52;;;;;;;33.17;19.52;;;16.50;99.90;;;;;;4976229;28;20049;-70
2022/09/12 00:29:19;;;;;;;31.33;19.55;;;16.50;99.90;;;;;;4972602;28;20034;-67
2022/09/12 00:31:45;;;;;;;29.23;18.27;;;16.50;99.90;;;;;;4977553;28;20039;-69
2022/09/12 00:34:11;;;;;;;30.63;19.52;;;16.50;99.90;;;;;;4992145;28;20045;-67
2022/09/12 00:36:38;;;;;;;31.65;20.30;;;16.50;99.90;;;;;;4989435;28;20030;-69
2022/09/12 00:39:04;;;;;;;30.38;19.17;;;16.40;99.90;;;;;;4972900;28;20483;-66
2022/09/12 00:41:33;;;;;;;31.75;19.92;;;16.40;99.90;;;;;;4990826;28;20034;-67
2022/09/12 00:44:01;;;;;;;31.55;20.10;;;16.40;99.90;;;;;;4980887;28;20043;-66
2022/09/12 00:46:39;;;;;;;31.60;20.42;;;16.40;99.90;;;;;;4978711;28;20067;-67
2022/09/12 00:49:08;;;;;;;29.92;20.60;;;16.40;99.90;;;;;;4972823;28;20027;-68
2022/09/12 00:51:36;;;;;;;36.40;21.35;;;16.40;99.90;;;;;;4972025;28;20050;-70
2022/09/12 00:54:09;;;;;;;33.83;20.48;;;16.40;99.90;;;;;;4972927;28;20026;-68
2022/09/12 00:56:38;;;;;;;33.72;21.15;;;16.40;99.90;;;;;;4973403;28;20061;-70
2022/09/12 00:59:26;;;;;;;32.20;21.33;;;16.30;99.90;;;;;;4973114;28;20360;-68
2022/09/12 01:01:52;;;;;;;37.10;22.40;;;16.40;99.90;;;;;;4974022;28;20106;-68
2022/09/12 01:04:20;;;;;;;35.83;21.85;;;16.30;99.90;;;;;;4991336;28;20429;-68
2022/09/12 01:06:48;;;;;;;33.40;21.98;;;16.30;99.90;;;;;;4992383;28;20054;-70
2022/09/12 01:09:17;;;;;;;34.28;21.60;;;16.30;99.90;;;;;;4991413;28;20046;-68
2022/09/12 01:11:45;;;;;;;36.95;22.27;;;16.30;99.90;;;;;;4976643;28;20089;-68
2022/09/12 01:14:12;;;;;;;37.13;23.50;;;16.30;99.90;;;;;;4985289;28;20095;-67
2022/09/12 01:16:39;;;;;;;34.38;23.08;;;16.30;99.90;;;;;;4972627;28;20030;-67
2022/09/12 01:19:35;;;;;;;36.30;23.15;;;16.30;99.90;;;;;;4979061;28;20019;-70
2022/09/12 01:22:34;;;;;;;36.55;23.25;;;16.30;99.90;;;;;;4982483;28;20380;-68
2022/09/12 01:25:09;;;;;;;35.00;22.10;;;16.20;99.90;;;;;;4972814;28;20086;-67
2022/09/12 01:27:47;;;;;;;34.95;21.63;;;16.20;99.90;;;;;;4988873;28;20035;-67
2022/09/12 01:30:30;;;;;;;33.88;21.40;;;16.20;99.90;;;;;;4985722;28;20469;-68
2022/09/12 01:33:09;;;;;;;33.88;20.98;;;16.20;99.90;;;;;;4981098;28;20029;-68
2022/09/12 01:36:12;;;;;;;30.58;19.85;;;16.20;99.90;;;;;;4987400;28;20037;-67
2022/09/12 01:38:55;;;;;;;29.75;19.13;;;16.20;99.90;;;;;;4971370;28;20580;-67
2022/09/12 01:41:20;;;;;;;31.00;18.27;;;16.20;99.90;;;;;;4976655;28;20701;-68
2022/09/12 01:44:05;;;;;;;30.23;18.48;;;16.20;99.90;;;;;;4983412;28;20026;-67
2022/09/12 01:46:48;;;;;;;26.58;15.27;;;16.20;99.90;;;;;;4980368;28;20043;-67
2022/09/12 01:49:28;;;;;;;28.77;17.13;;;16.20;99.90;;;;;;4985224;28;20454;-71
2022/09/12 01:52:22;;;;;;;27.02;16.42;;;16.20;99.90;;;;;;4973412;28;20046;-70
2022/09/12 01:54:59;;;;;;;27.90;16.73;;;16.30;99.90;;;;;;4971746;28;20035;-69
2022/09/12 01:57:32;;;;;;;25.88;15.98;;;16.30;99.90;;;;;;4972738;28;20038;-67
2022/09/12 02:00:03;;;;;;;26.13;15.27;;;16.30;99.90;;;;;;4972917;28;20166;-68
2022/09/12 02:02:49;;;;;;;26.85;17.00;;;16.40;99.90;;;;;;4982776;28;20035;-69
2022/09/12 02:05:26;;;;;;;26.92;16.05;;;16.40;99.90;;;;;;4978140;28;20034;-68
2022/09/12 02:08:21;;;;;;;24.83;15.60;;;16.40;99.90;;;;;;4988998;28;20113;-67
2022/09/12 02:10:53;;;;;;;27.38;15.00;;;16.50;99.90;;;;;;4972942;28;20055;-70
2022/09/12 02:13:32;;;;;;;28.92;15.05;;;16.50;99.90;;;;;;4979277;28;20747;-69
2022/09/12 02:16:04;;;;;;;25.98;14.85;;;16.50;99.90;;;;;;4975405;28;20030;-70
2022/09/12 02:18:32;;;;;;;26.92;16.05;;;16.50;99.90;;;;;;4986733;28;20454;-66
2022/09/12 02:21:00;;;;;;;30.13;15.85;;;16.50;99.90;;;;;;4992751;28;21974;-68
2022/09/12 02:23:28;;;;;;;25.88;15.45;;;16.50;99.90;;;;;;4977711;28;20030;-70
2022/09/12 02:26:01;;;;;;;27.77;15.50;;;16.50;99.90;;;;;;4983612;28;20048;-71
2022/09/12 02:28:32;;;;;;;25.60;15.80;;;16.50;99.90;;;;;;4994272;28;20030;-67
2022/09/12 02:31:20;;;;;;;27.52;15.25;;;16.50;99.90;;;;;;4990337;28;20039;-70
2022/09/12 02:34:16;;;;;;;24.70;15.35;;;16.50;99.90;;;;;;4989743;28;20057;-68
2022/09/12 02:37:11;;;;;;;24.17;15.20;;;16.50;99.90;;;;;;4975710;28;20034;-72
2022/09/12 02:39:37;;;;;;;26.10;15.50;;;16.50;99.90;;;;;;4985697;28;20026;-68
2022/09/12 02:42:03;;;;;;;26.83;16.42;;;16.50;99.90;;;;;;4980672;28;20034;-71
2022/09/12 02:44:32;;;;;;;27.63;17.48;;;16.50;99.90;;;;;;4990771;28;20030;-68
2022/09/12 02:47:07;;;;;;;26.20;15.77;;;16.50;99.90;;;;;;4982079;28;20396;-71
2022/09/12 02:49:32;;;;;;;27.50;16.90;;;16.50;99.90;;;;;;4993548;28;20030;-68
2022/09/12 02:52:00;;;;;;;29.17;16.55;;;16.50;99.90;;;;;;4983356;28;20038;-68
2022/09/12 02:54:26;;;;;;;28.50;16.77;;;16.60;99.90;;;;;;4976038;28;20019;-71
2022/09/12 02:56:51;;;;;;;26.15;16.77;;;16.60;99.90;;;;;;4975314;28;20031;-68
2022/09/12 02:59:20;;;;;;;28.33;17.30;;;16.60;99.90;;;;;;4978967;28;20034;-70
2022/09/12 03:01:51;;;;;;;28.88;16.50;;;16.60;99.90;;;;;;4980557;28;20026;-69
2022/09/12 03:04:29;;;;;;;28.83;16.98;;;16.70;99.90;;;;;;4976537;28;20028;-69
2022/09/12 03:07:33;;;;;;;29.48;16.33;;;16.70;99.90;;;;;;4983972;28;20045;-68
2022/09/12 03:10:21;;;;;;;29.33;15.95;;;16.70;99.90;;;;;;4982412;28;20205;-68
2022/09/12 03:13:05;;;;;;;26.83;15.10;;;16.70;99.90;;;;;;4981662;28;20042;-68
2022/09/12 03:15:43;;;;;;;25.52;15.60;;;16.70;99.90;;;;;;4978719;28;20049;-69
2022/09/12 03:18:30;;;;;;;28.05;15.27;;;16.70;99.90;;;;;;4987897;28;20037;-68
2022/09/12 03:21:30;;;;;;;25.80;15.50;;;16.70;99.90;;;;;;4983957;28;20029;-68
2022/09/12 03:24:04;;;;;;;28.50;16.60;;;16.70;99.90;;;;;;4988907;28;20048;-68
2022/09/12 03:26:33;;;;;;;29.15;15.43;;;16.70;99.90;;;;;;4983171;28;20022;-68
2022/09/12 03:29:02;;;;;;;26.60;15.85;;;16.70;99.90;;;;;;4994373;28;20022;-69
2022/09/12 03:31:27;;;;;;;29.38;16.20;;;16.70;99.90;;;;;;4992806;28;20039;-69
2022/09/12 03:33:53;;;;;;;27.48;14.65;;;16.70;99.90;;;;;;4982118;28;20053;-67
2022/09/12 03:36:25;;;;;;;25.80;15.40;;;16.80;99.90;;;;;;4991693;28;20062;-67
2022/09/12 03:38:51;;;;;;;27.98;16.10;;;16.80;99.90;;;;;;4977561;28;20138;-67
2022/09/12 03:41:17;;;;;;;28.75;15.57;;;16.80;99.90;;;;;;4986957;28;20176;-67
2022/09/12 03:43:43;;;;;;;27.30;17.15;;;16.70;99.90;;;;;;4979320;28;20042;-67
2022/09/12 03:46:09;;;;;;;29.27;16.73;;;16.80;99.90;;;;;;4983721;28;20034;-69
2022/09/12 03:48:34;;;;;;;29.63;16.95;;;16.70;99.90;;;;;;4984858;28;20437;-67
2022/09/12 03:51:05;;;;;;;30.27;15.75;;;16.80;99.90;;;;;;4984203;28;20038;-68
2022/09/12 03:53:31;;;;;;;29.48;16.85;;;16.80;99.90;;;;;;4982149;28;20037;-68
2022/09/12 03:55:57;;;;;;;26.23;16.02;;;16.80;99.90;;;;;;4985506;28;20049;-67
2022/09/12 03:58:24;;;;;;;28.80;17.00;;;16.80;99.90;;;;;;4993821;28;20031;-67
2022/09/12 04:00:50;;;;;;;28.65;17.45;;;16.80;99.90;;;;;;4991422;28;20027;-68
2022/09/12 04:03:16;;;;;;;27.77;16.05;;;16.90;99.90;;;;;;4984961;28;20029;-67
2022/09/12 04:05:41;;;;;;;26.77;16.23;;;16.90;99.90;;;;;;4991692;28;20133;-67
2022/09/12 04:08:07;;;;;;;28.13;16.95;;;16.90;99.90;;;;;;4987369;28;20110;-68
2022/09/12 04:10:32;;;;;;;27.05;16.05;;;16.90;99.90;;;;;;4978189;28;20046;-67
2022/09/12 04:12:58;;;;;;;26.50;16.50;;;16.90;99.90;;;;;;4973729;28;20101;-67
2022/09/12 04:15:24;;;;;;;27.60;17.55;;;16.90;99.90;;;;;;4977359;28;20026;-69
2022/09/12 04:17:49;;;;;;;28.45;17.27;;;16.90;99.90;;;;;;4993737;28;20053;-68
2022/09/12 04:20:15;;;;;;;27.50;17.23;;;17.00;99.90;;;;;;4974368;28;20465;-68
2022/09/12 04:22:40;;;;;;;27.42;16.38;;;16.90;99.90;;;;;;4991636;28;20492;-72
2022/09/12 04:25:08;;;;;;;27.15;15.75;;;16.90;99.90;;;;;;4991667;28;20081;-70
2022/09/12 04:27:34;;;;;;;26.45;16.63;;;16.90;99.90;;;;;;4989260;28;20030;-67
2022/09/12 04:30:01;;;;;;;27.08;16.63;;;16.90;99.90;;;;;;4993257;28;20452;-67
2022/09/12 04:32:28;;;;;;;25.10;15.50;;;16.90;99.90;;;;;;4974147;28;20050;-67
2022/09/12 04:34:53;;;;;;;25.90;15.63;;;16.80;99.90;;;;;;4990208;28;20062;-69
2022/09/12 04:37:19;;;;;;;26.67;15.98;;;16.80;99.90;;;;;;4992472;28;20042;-67
2022/09/12 04:39:44;;;;;;;29.20;16.63;;;16.90;99.90;;;;;;4984553;28;20027;-67
2022/09/12 04:42:10;;;;;;;28.20;17.45;;;16.80;99.90;;;;;;4988392;28;20030;-68
2022/09/12 04:44:36;;;;;;;31.48;16.63;;;16.80;99.90;;;;;;4992775;28;20022;-69
2022/09/12 04:47:02;;;;;;;29.15;16.67;;;16.80;99.90;;;;;;4976198;28;20050;-68
2022/09/12 04:49:27;;;;;;;29.13;18.23;;;16.70;99.90;;;;;;4973530;28;20030;-70
2022/09/12 04:51:54;;;;;;;30.20;17.55;;;16.70;99.90;;;;;;4973997;28;20055;-72
2022/09/12 04:54:19;;;;;;;32.85;19.08;;;16.70;99.90;;;;;;4989372;28;20448;-70
2022/09/12 04:56:48;;;;;;;31.20;17.30;;;16.70;99.90;;;;;;4978436;28;20477;-70
2022/09/12 04:59:15;;;;;;;28.90;16.90;;;16.60;99.90;;;;;;4986288;28;20030;-68
2022/09/12 05:01:41;;;;;;;30.52;18.10;;;16.60;99.90;;;;;;4983290;28;20023;-68
2022/09/12 05:04:08;;;;;;;30.67;17.25;;;16.60;99.90;;;;;;4974043;28;20102;-67
2022/09/12 05:06:37;;;;;;;30.55;17.92;;;16.50;99.90;;;;;;4973374;28;20023;-69
2022/09/12 05:09:04;;;;;;;31.52;18.25;;;16.50;99.90;;;;;;4980667;28;20109;-71
2022/09/12 05:11:32;;;;;;;31.67;17.83;;;16.50;99.90;;;;;;4990912;28;20050;-70
2022/09/12 05:13:58;;;;;;;30.58;18.25;;;16.50;99.90;;;;;;4986122;28;20034;-68
2022/09/12 05:16:26;;;;;;;31.63;18.48;;;16.50;99.90;;;;;;4980192;28;20050;-71
2022/09/12 05:18:51;;;;;;;34.00;18.20;;;16.40;99.90;;;;;;4973361;28;20019;-68
2022/09/12 05:21:19;;;;;;;33.20;19.33;;;16.40;99.90;;;;;;4982526;28;20030;-67
2022/09/12 05:23:46;;;;;;;33.38;19.67;;;16.40;99.90;;;;;;4977439;28;20031;-70
2022/09/12 05:26:14;;;;;;;31.92;18.38;;;16.40;99.90;;;;;;4972338;28;20055;-68
2022/09/12 05:28:40;;;;;;;31.27;18.52;;;16.40;99.90;;;;;;4981111;28;20030;-70
2022/09/12 05:31:18;;;;;;;33.25;19.40;;;16.30;99.90;;;;;;4989508;28;20057;-67
2022/09/12 05:33:46;;;;;;;33.22;20.10;;;16.30;99.90;;;;;;4976530;28;20382;-70
2022/09/12 05:36:18;;;;;;;32.20;18.88;;;16.30;99.90;;;;;;4974866;28;20045;-68
2022/09/12 05:38:44;;;;;;;34.88;20.33;;;16.30;99.90;;;;;;4989112;28;20073;-68
2022/09/12 05:41:13;;;;;;;34.78;19.45;;;16.30;99.90;;;;;;4989074;28;20038;-68
2022/09/12 05:43:41;;;;;;;32.10;18.20;;;16.30;99.90;;;;;;4972935;28;20106;-67
2022/09/12 05:46:12;;;;;;;30.67;18.85;;;16.30;99.90;;;;;;4975444;28;20073;-70
2022/09/12 05:48:39;;;;;;;35.60;19.57;;;16.20;99.90;;;;;;4977104;28;20077;-67
2022/09/12 05:51:07;;;;;;;32.45;20.20;;;16.20;99.90;;;;;;4976175;28;20034;-67
2022/09/12 05:53:35;;;;;;;33.35;19.00;;;16.20;99.90;;;;;;4987575;28;20084;-67
2022/09/12 05:56:09;;;;;;;32.65;19.58;;;16.20;99.90;;;;;;4983674;28;20050;-67
2022/09/12 05:58:37;;;;;;;34.17;19.80;;;16.20;99.90;;;;;;4991080;28;20043;-67
2022/09/12 06:01:11;;;;;;;33.10;19.95;;;16.20;99.90;;;;;;4978263;28;20114;-69
2022/09/12 06:03:46;;;;;;;37.20;21.50;;;16.20;99.90;;;;;;4992370;28;20097;-66
2022/09/12 06:06:13;;;;;;;38.35;21.17;;;16.20;99.90;;;;;;4992642;28;20433;-67
2022/09/12 06:08:43;;;;;;;35.75;21.38;;;16.20;99.90;;;;;;4995558;28;20041;-70
2022/09/12 06:11:14;;;;;;;37.00;22.05;;;16.20;99.90;;;;;;4992215;28;20097;-67
2022/09/12 06:13:41;;;;;;;37.45;20.60;;;16.20;99.90;;;;;;4983524;28;20023;-71
2022/09/12 06:16:09;;;;;;;36.28;20.35;;;16.20;99.90;;;;;;4975763;28;20046;-67
2022/09/12 06:18:36;;;;;;;37.38;22.13;;;16.30;99.90;;;;;;4984998;28;20030;-67
2022/09/12 06:21:11;;;;;;;36.08;20.42;;;16.30;99.90;;;;;;4992664;28;20065;-68
2022/09/12 06:23:38;;;;;;;33.47;20.30;;;16.40;99.90;;;;;;4978225;28;20046;-68
2022/09/12 06:26:05;;;;;;;38.20;21.23;;;16.40;99.90;;;;;;4976252;28;20018;-68
2022/09/12 06:28:32;;;;;;;35.42;20.15;;;16.50;99.90;;;;;;4994582;28;20022;-66
2022/09/12 06:31:06;;;;;;;33.35;20.40;;;16.50;99.90;;;;;;4995490;28;20037;-68
2022/09/12 06:33:37;;;;;;;34.60;20.48;;;16.60;99.90;;;;;;4978633;28;20035;-67
2022/09/12 06:36:11;;;;;;;36.13;20.87;;;16.60;99.90;;;;;;4990430;28;20030;-67
2022/09/12 06:38:38;;;;;;;35.83;21.80;;;16.60;99.90;;;;;;4987450;28;20445;-67
2022/09/12 06:41:05;;;;;;;33.90;20.45;;;16.70;99.90;;;;;;4988518;28;20035;-71
2022/09/12 06:43:32;;;;;;;33.47;20.35;;;16.80;99.90;;;;;;4975335;28;20470;-68
2022/09/12 06:45:58;;;;;;;30.33;18.63;;;16.90;99.90;;;;;;4981805;28;20065;-68
2022/09/12 06:48:24;;;;;;;30.55;18.05;;;17.20;99.90;;;;;;4975864;28;20061;-68
2022/09/12 06:51:06;;;;;;;30.52;19.30;;;17.30;99.90;;;;;;4975905;28;20457;-67
2022/09/12 06:53:32;;;;;;;31.15;18.77;;;17.50;99.90;;;;;;4994696;28;20018;-67
2022/09/12 06:56:06;;;;;;;32.50;19.20;;;17.60;99.90;;;;;;4980201;28;20042;-67
2022/09/12 06:58:32;;;;;;;30.42;18.95;;;17.80;99.90;;;;;;4975361;28;20061;-69
2022/09/12 07:01:08;;;;;;;30.85;17.42;;;17.80;99.90;;;;;;4974890;28;20030;-68
2022/09/12 07:03:35;;;;;;;31.65;18.65;;;18.00;99.90;;;;;;4977135;28;20030;-67
2022/09/12 07:06:09;;;;;;;27.38;17.05;;;18.10;99.90;;;;;;4993431;28;20038;-69
2022/09/12 07:08:36;;;;;;;29.23;16.17;;;18.20;99.90;;;;;;4995112;28;20105;-70
2022/09/12 07:11:23;;;;;;;29.10;17.10;;;18.30;99.90;;;;;;4994272;28;20050;-69
2022/09/12 07:13:52;;;;;;;28.52;16.42;;;18.20;99.90;;;;;;4992161;28;20026;-69
2022/09/12 07:16:18;;;;;;;26.27;14.48;;;18.20;99.90;;;;;;4989100;28;20023;-68
2022/09/12 07:18:48;;;;;;;29.25;16.35;;;18.20;99.90;;;;;;4975130;28;20085;-68
2022/09/12 07:21:14;;;;;;;25.15;13.32;;;18.30;99.90;;;;;;4975856;28;20065;-67
2022/09/12 07:23:40;;;;;;;27.17;15.85;;;18.40;99.90;;;;;;4989635;28;20070;-67
2022/09/12 07:26:07;;;;;;;26.88;16.77;;;18.50;99.90;;;;;;4989526;28;20030;-68
2022/09/12 07:28:33;;;;;;;27.52;16.02;;;18.70;99.90;;;;;;4994490;28;20019;-68
2022/09/12 07:31:11;;;;;;;29.10;17.13;;;19.00;99.90;;;;;;4982477;28;20096;-66
2022/09/12 07:33:38;;;;;;;26.52;13.30;;;19.50;99.90;;;;;;4976166;28;20109;-66
2022/09/12 07:36:06;;;;;;;25.13;14.75;;;20.00;99.90;;;;;;4983988;28;20069;-65
2022/09/12 07:38:31;;;;;;;27.20;14.80;;;20.40;99.90;;;;;;4974621;28;20031;-69
2022/09/12 07:40:57;;;;;;;24.52;14.52;;;20.70;99.90;;;;;;4976405;28;20025;-66
2022/09/12 07:43:24;;;;;;;25.08;14.80;;;21.10;99.90;;;;;;4978043;28;20023;-68
2022/09/12 07:45:55;;;;;;;23.77;14.85;;;21.40;99.90;;;;;;4974944;28;20517;-70
2022/09/12 07:48:20;;;;;;;25.67;13.33;;;21.70;99.90;;;;;;4974855;28;20157;-68
2022/09/12 07:50:46;;;;;;;22.65;14.05;;;22.30;99.90;;;;;;4976775;28;20133;-67
2022/09/12 07:53:12;;;;;;;23.85;14.43;;;23.00;99.90;;;;;;4986604;28;20071;-68
2022/09/12 07:55:37;;;;;;;22.27;13.25;;;23.60;99.90;;;;;;4986154;28;20420;-70
2022/09/12 07:58:03;;;;;;;26.02;14.65;;;24.10;99.90;;;;;;4991586;28;20026;-71
2022/09/12 08:00:34;;;;;;;26.27;15.45;;;24.30;99.60;;;;;;5001880;28;20026;-68
2022/09/12 08:03:01;;;;;;;22.92;14.27;;;24.30;99.60;;;;;;4996838;28;20025;-69
2022/09/12 08:05:28;;;;;;;22.10;13.18;;;24.60;99.40;;;;;;5007304;28;20541;-71
2022/09/12 08:07:54;;;;;;;22.05;14.35;;;25.10;98.60;;;;;;5008467;28;20025;-67
2022/09/12 08:10:19;;;;;;;22.70;13.75;;;25.30;98.00;;;;;;5008009;28;20054;-68
2022/09/12 08:12:45;;;;;;;21.85;13.60;;;25.70;97.90;;;;;;4995996;28;20030;-68
2022/09/12 08:15:11;;;;;;;21.58;13.25;;;26.20;97.00;;;;;;5006198;28;20030;-68
2022/09/12 08:17:36;;;;;;;22.38;11.68;;;26.50;96.30;;;;;;5005709;28;20029;-68
2022/09/12 08:20:03;;;;;;;19.83;11.57;;;26.40;96.00;;;;;;5006017;28;20508;-69
2022/09/12 08:22:30;;;;;;;22.45;14.02;;;26.50;95.80;;;;;;4999551;28;20037;-68
2022/09/12 08:24:55;;;;;;;21.65;14.15;;;26.50;96.00;;;;;;5001612;28;20289;-68
2022/09/12 08:27:21;;;;;;;22.48;13.48;;;26.60;95.80;;;;;;5004739;28;20502;-69
2022/09/12 08:29:46;;;;;;;24.50;14.45;;;26.50;95.60;;;;;;4985462;28;20026;-67
2022/09/12 08:32:12;;;;;;;21.58;12.48;;;26.40;95.90;;;;;;4975556;28;20077;-66
2022/09/12 08:34:38;;;;;;;20.05;12.05;;;26.50;96.00;;;;;;4977553;28;20117;-66
2022/09/12 08:37:04;;;;;;;21.63;13.00;;;26.50;95.60;;;;;;4973885;28;20037;-66
2022/09/12 08:39:31;;;;;;;18.80;11.15;;;26.60;95.90;;;;;;4979176;28;20062;-66
2022/09/12 08:42:07;;;;;;;19.27;11.00;;;26.80;95.50;;;;;;4982998;28;20018;-66
2022/09/12 08:44:56;;;;;;;21.08;12.57;;;27.30;94.90;;;;;;4976652;28;20089;-69
2022/09/12 08:47:37;;;;;;;19.02;11.88;;;27.60;94.60;;;;;;4979613;28;20031;-67
2022/09/12 08:50:14;;;;;;;18.98;11.48;;;27.30;94.70;;;;;;4986286;28;20045;-68
2022/09/12 08:53:02;;;;;;;20.92;11.80;;;27.20;94.80;;;;;;4990446;28;20492;-67
2022/09/12 08:55:36;;;;;;;20.45;12.75;;;27.40;94.50;;;;;;4992547;28;20226;-74
2022/09/12 08:58:21;;;;;;;25.20;15.07;;;28.00;94.20;;;;;;4983804;28;20034;-70
2022/09/12 09:01:06;;;;;;;39.50;27.55;;;28.70;93.30;;;;;;4975935;28;20062;-70
2022/09/12 09:03:43;;;;;;;42.78;30.02;;;28.90;92.50;;;;;;4974131;28;20125;-70
2022/09/12 09:06:54;;;;;;;53.63;35.53;;;29.00;92.50;;;;;;4991461;28;20802;-70
2022/09/12 09:09:22;;;;;;;24.02;14.02;;;29.60;91.70;;;;;;4967681;28;20528;-70
2022/09/12 09:12:04;;;;;;;26.65;15.27;;;30.10;90.70;;;;;;4984517;28;20046;-71
2022/09/12 09:15:13;;;;;;;28.48;17.27;;;29.90;90.40;;;;;;4994556;28;20109;-71
2022/09/12 09:17:45;;;;;;;26.48;16.90;;;29.40;90.60;;;;;;4975040;28;20038;-71
2022/09/12 09:20:27;;;;;;;30.05;19.20;;;29.20;91.10;;;;;;4979754;28;20463;-72
2022/09/12 09:23:14;;;;;;;16.83;10.10;;;29.30;91.30;;;;;;4979180;28;20027;-71
2022/09/12 09:25:54;;;;;;;17.73;10.10;;;29.90;90.40;;;;;;4975516;28;20081;-71
2022/09/12 09:28:54;;;;;;;15.25;8.50;;;30.50;89.90;;;;;;4977500;28;20428;-71
2022/09/12 09:31:25;;;;;;;17.83;9.85;;;31.20;88.00;;;;;;4983056;28;20076;-71
2022/09/12 09:33:54;;;;;;;14.85;9.13;;;31.80;87.10;;;;;;4987532;28;20404;-72
2022/09/12 09:37:01;;;;;;;15.35;8.10;;;32.30;85.40;;;;;;4979757;28;20683;-75
2022/09/12 09:39:38;;;;;;;15.75;9.23;;;32.50;83.50;;;;;;4979223;28;20041;-71
2022/09/12 09:42:14;;;;;;;17.30;8.88;;;31.80;84.30;;;;;;4980576;28;20026;-71
2022/09/12 09:44:40;;;;;;;19.10;11.38;;;31.70;84.60;;;;;;4995972;28;20038;-70
2022/09/12 09:47:09;;;;;;;14.55;9.32;;;31.80;84.70;;;;;;4997055;28;20081;-70
2022/09/12 09:49:35;;;;;;;15.35;9.57;;;32.20;84.30;;;;;;4977657;28;20026;-71
2022/09/12 09:52:01;;;;;;;16.10;9.07;;;32.40;83.10;;;;;;4976443;28;20094;-72
2022/09/12 09:54:44;;;;;;;17.08;8.27;;;32.10;82.80;;;;;;4976213;28;20029;-70
2022/09/12 09:57:34;;;;;;;16.77;9.25;;;31.80;83.40;;;;;;4993166;28;20018;-70
2022/09/12 10:00:26;;;;;;;16.50;9.50;;;31.60;83.70;;;;;;4975932;28;20034;-72
2022/09/12 10:03:27;;;;;;;13.85;8.27;;;31.50;83.90;;;;;;4976681;28;20031;-71
2022/09/12 10:06:01;;;;;;;18.15;9.40;;;31.40;84.50;;;;;;4976181;28;20027;-71
2022/09/12 10:08:35;;;;;;;16.00;9.73;;;31.10;85.00;;;;;;4992282;28;20091;-68
2022/09/12 10:11:17;;;;;;;13.40;8.77;;;31.10;84.80;;;;;;4975869;28;20508;-72
2022/09/12 10:13:55;;;;;;;15.23;8.70;;;31.30;85.40;;;;;;4984293;28;20057;-71
2022/09/12 10:16:26;;;;;;;15.95;8.48;;;31.50;84.90;;;;;;4987586;28;20034;-71
2022/09/12 10:18:53;;;;;;;16.02;8.75;;;31.40;83.60;;;;;;4994910;28;20022;-73
2022/09/12 10:21:26;;;;;;;16.63;8.88;;;31.40;83.70;;;;;;4995172;28;20031;-71
2022/09/12 10:23:59;;;;;;;12.52;7.65;;;31.30;84.70;;;;;;4994857;28;20419;-71
2022/09/12 10:26:29;;;;;;;15.20;8.10;;;31.80;83.40;;;;;;4992070;28;20030;-70
2022/09/12 10:28:55;;;;;;;12.93;7.38;;;31.90;82.50;;;;;;4987558;28;20033;-71
2022/09/12 10:31:32;;;;;;;11.15;6.55;;;31.90;81.90;;;;;;4992218;28;20034;-71
2022/09/12 10:33:59;;;;;;;12.52;7.80;;;31.70;81.20;;;;;;4982297;28;20121;-71
2022/09/12 10:36:38;;;;;;;10.50;6.38;;;30.90;83.60;;;;;;4991888;28;20105;-70
2022/09/12 10:39:05;;;;;;;13.00;6.95;;;30.60;84.00;;;;;;4984650;28;20136;-72
2022/09/12 10:41:39;;;;;;;11.68;6.47;;;30.30;84.60;;;;;;4986416;28;20022;-72
2022/09/12 10:44:15;;;;;;;11.70;6.22;;;30.20;85.40;;;;;;4990890;28;20424;-71
2022/09/12 10:46:40;;;;;;;10.60;5.70;;;30.60;84.50;;;;;;4986329;28;20014;-72
2022/09/12 10:49:24;;;;;;;9.85;4.70;;;31.10;83.20;;;;;;4979118;28;20460;-70
2022/09/12 10:51:52;;;;;;;8.48;4.75;;;31.50;81.80;;;;;;4986136;28;20036;-73
2022/09/12 10:54:21;;;;;;;8.93;4.78;;;31.70;81.30;;;;;;4982698;28;20031;-72
2022/09/12 10:57:46;;;;;;;9.32;5.18;;;31.90;81.00;;;;;;4986463;28;20041;-70
2022/09/12 11:00:16;;;;;;;10.27;5.80;;;31.70;80.40;;;;;;4971476;28;20110;-69
2022/09/12 11:03:16;;;;;;;8.93;5.88;;;31.00;80.60;;;;;;4990179;28;20049;-71
2022/09/12 11:06:00;;;;;;;10.48;5.10;;;30.50;82.00;;;;;;4987640;28;20022;-70
2022/09/12 11:08:37;;;;;;;8.85;5.07;;;30.30;82.80;;;;;;5000923;28;20030;-72
2022/09/12 11:11:40;;;;;;;9.50;5.07;;;30.60;81.40;;;;;;4991229;28;20058;-73
2022/09/12 11:14:18;;;;;;;9.23;5.25;;;30.80;80.60;;;;;;4977488;28;20453;-70
2022/09/12 11:17:06;;;;;;;12.43;5.75;;;30.60;81.60;;;;;;4978591;28;20477;-71
2022/09/12 11:19:46;;;;;;;9.82;5.43;;;30.50;81.90;;;;;;4972907;28;20045;-71
2022/09/12 11:22:14;;;;;;;9.52;5.05;;;30.70;82.00;;;;;;4976726;28;20081;-72
2022/09/12 11:25:31;;;;;;;9.50;4.28;;;31.00;81.20;;;;;;4986300;28;20436;-71
2022/09/12 11:28:15;;;;;;;8.98;4.45;;;31.00;80.10;;;;;;4988742;28;20053;-72
2022/09/12 11:31:05;;;;;;;6.93;4.60;;;31.00;80.40;;;;;;4980270;28;20142;-71
2022/09/12 11:33:37;;;;;;;10.10;4.55;;;31.30;80.40;;;;;;4987663;28;20088;-70
2022/09/12 11:36:11;;;;;;;7.15;4.45;;;31.40;79.20;;;;;;4991033;28;20026;-70
2022/09/12 11:38:50;;;;;;;7.57;4.03;;;31.50;79.70;;;;;;4987818;28;20023;-71
2022/09/12 11:41:30;;;;;;;7.15;4.28;;;31.60;78.00;;;;;;4979638;28;20515;-70
2022/09/12 11:44:02;;;;;;;8.07;3.97;;;31.20;78.70;;;;;;4973443;28;20026;-72
2022/09/12 11:46:35;;;;;;;7.43;3.72;;;30.90;77.90;;;;;;4982513;28;20030;-71
2022/09/12 11:49:08;;;;;;;8.48;4.40;;;30.90;79.10;;;;;;4974449;28;20019;-72
2022/09/12 11:51:43;;;;;;;12.55;6.03;;;31.00;78.00;;;;;;4989930;28;20045;-70
2022/09/12 11:54:27;;;;;;;9.38;4.85;;;31.00;77.80;;;;;;4984074;28;20019;-71
2022/09/12 11:57:24;;;;;;;7.63;4.35;;;31.30;77.80;;;;;;4991515;28;20030;-73
2022/09/12 12:00:03;;;;;;;11.27;5.60;;;31.30;77.70;;;;;;4982149;28;20073;-71
2022/09/12 12:02:56;;;;;;;7.30;4.00;;;31.60;77.20;;;;;;4991329;28;20022;-70
2022/09/12 12:05:52;;;;;;;8.98;5.35;;;31.80;76.60;;;;;;4979747;28;20042;-71
2022/09/12 12:08:20;;;;;;;12.38;6.28;;;31.80;75.90;;;;;;4980854;28;20061;-72
2022/09/12 12:10:57;;;;;;;14.00;7.35;;;31.40;75.30;;;;;;4991672;28;20054;-70
2022/09/12 12:13:26;;;;;;;12.35;6.15;;;31.20;75.80;;;;;;4974352;28;20054;-70
2022/09/12 12:15:56;;;;;;;12.93;6.57;;;31.00;75.90;;;;;;4981819;28;20029;-70
2022/09/12 12:18:25;;;;;;;3.53;2.83;;;30.60;77.40;;;;;;4992940;28;20081;-71
2022/09/12 12:20:52;;;;;;;4.93;3.42;;;30.40;76.80;;;;;;4992869;28;20027;-70
2022/09/12 12:23:28;;;;;;;4.45;2.60;;;30.40;76.70;;;;;;4993028;28;20023;-71
2022/09/12 12:25:56;;;;;;;5.55;3.30;;;30.80;75.60;;;;;;4993390;28;20134;-71
2022/09/12 12:28:40;;;;;;;5.15;2.33;;;30.90;74.30;;;;;;4989656;28;20061;-69
2022/09/12 12:31:06;;;;;;;6.28;2.75;;;31.10;72.90;;;;;;4996411;28;20433;-74
2022/09/12 12:33:32;;;;;;;3.88;2.53;;;31.20;74.10;;;;;;4995580;28;20018;-71
2022/09/12 12:35:58;;;;;;;2.92;2.50;;;31.50;73.80;;;;;;4981671;28;20058;-71
2022/09/12 12:38:37;;;;;;;5.95;2.70;;;31.70;73.20;;;;;;4993279;28;20057;-72
2022/09/12 12:41:22;;;;;;;4.10;2.50;;;31.10;73.60;;;;;;4993198;28;20018;-70
2022/09/12 12:43:51;;;;;;;3.72;2.30;;;31.10;73.70;;;;;;4992775;28;20026;-72
2022/09/12 12:46:18;;;;;;;7.03;3.45;;;31.10;73.50;;;;;;4992756;28;20120;-71
2022/09/12 12:48:52;;;;;;;6.13;3.42;;;30.70;75.00;;;;;;5009894;28;20048;-71
2022/09/12 12:51:42;;;;;;;4.25;2.60;;;30.40;76.20;;;;;;4992762;28;20069;-70
2022/09/12 12:54:33;;;;;;;5.07;3.05;;;30.00;76.40;;;;;;4992649;28;20028;-74
2022/09/12 12:57:25;;;;;;;4.53;2.85;;;29.60;77.10;;;;;;4992837;28;20029;-72
2022/09/12 12:59:53;;;;;;;;;;;29.00;77.50;;;;;;4993330;28;20109;-70